createdAt,value
2018-07-19T00:01:30.827Z,70.03
2018-07-19T00:03:59.909Z,69.30
2018-07-19T00:06:28.921Z,68.84
2018-07-19T00:08:57.996Z,69.13
2018-07-19T00:11:27.072Z,69.22
2018-07-19T00:13:56.110Z,68.69
2018-07-19T00:16:25.192Z,68.66
2018-07-19T00:18:54.253Z,69.47
2018-07-19T00:21:23.368Z,68.91
2018-07-19T00:23:52.344Z,69.19
2018-07-19T00:26:21.371Z,68.87
2018-07-19T00:28:50.397Z,69.13
2018-07-19T00:31:19.429Z,69.54
2018-07-19T00:33:48.538Z,69.46
2018-07-19T00:36:17.681Z,68.85
2018-07-19T00:38:46.729Z,69.51
2018-07-19T00:41:15.796Z,69.41
2018-07-19T00:43:44.789Z,68.56
2018-07-19T00:46:13.820Z,69.44
2018-07-19T00:48:42.846Z,70.54
2018-07-19T00:51:11.881Z,69.67
2018-07-19T00:53:40.913Z,69.42
2018-07-19T00:56:09.981Z,70.08
2018-07-19T00:58:39.008Z,70.50
2018-07-19T01:01:08.101Z,69.90
2018-07-19T01:03:37.112Z,69.89
2018-07-19T01:06:06.190Z,69.32
2018-07-19T01:08:35.249Z,69.14
2018-07-19T01:11:04.340Z,68.93
2018-07-19T01:13:33.373Z,68.93
2018-07-19T01:16:02.406Z,68.62
2018-07-19T01:18:31.490Z,68.12
2018-07-19T01:21:00.580Z,67.91
2018-07-19T01:23:29.589Z,67.86
2018-07-19T01:25:58.627Z,67.70
2018-07-19T01:28:27.636Z,67.60
2018-07-19T01:30:56.798Z,67.80
2018-07-19T01:33:25.829Z,68.12
2018-07-19T01:35:54.868Z,67.60
2018-07-19T01:38:23.901Z,68.82
2018-07-19T01:40:52.890Z,69.53
2018-07-19T01:43:21.997Z,67.98
2018-07-19T01:45:51.007Z,69.35
2018-07-19T01:48:20.025Z,68.69
2018-07-19T01:50:49.056Z,69.55
2018-07-19T01:53:18.178Z,69.48
2018-07-19T01:55:47.193Z,69.87
2018-07-19T01:58:16.160Z,70.09
2018-07-19T02:00:45.173Z,69.45
2018-07-19T02:03:14.141Z,69.56
2018-07-19T02:05:43.220Z,69.71
2018-07-19T02:08:12.291Z,69.49
2018-07-19T02:10:41.268Z,70.64
2018-07-19T02:13:10.264Z,70.15
2018-07-19T02:15:39.231Z,69.94
2018-07-19T02:18:08.301Z,69.92
2018-07-19T02:20:37.288Z,70.24
2018-07-19T02:23:06.587Z,70.03
2018-07-19T02:25:35.669Z,69.50
2018-07-19T02:28:04.748Z,70.01
2018-07-19T02:30:33.741Z,70.37
2018-07-19T02:33:02.781Z,69.61
2018-07-19T02:35:31.745Z,70.96
2018-07-19T02:38:00.747Z,70.81
2018-07-19T02:40:29.888Z,70.33
2018-07-19T02:42:58.897Z,71.09
2018-07-19T02:45:27.900Z,71.21
2018-07-19T02:47:56.884Z,70.07
2018-07-19T02:50:25.933Z,70.26
2018-07-19T02:52:54.903Z,70.28
2018-07-19T02:55:23.868Z,70.30
2018-07-19T02:57:52.988Z,70.70
2018-07-19T03:00:22.082Z,69.77
2018-07-19T03:02:51.112Z,70.55
2018-07-19T03:05:20.205Z,70.35
2018-07-19T03:07:49.315Z,69.16
2018-07-19T03:10:18.333Z,69.56
2018-07-19T03:12:47.365Z,69.80
2018-07-19T03:15:16.510Z,69.58
2018-07-19T03:17:45.581Z,70.54
2018-07-19T03:20:14.559Z,70.31
2018-07-19T03:22:43.547Z,70.58
2018-07-19T03:25:12.581Z,70.20
2018-07-19T03:27:41.585Z,70.89
2018-07-19T03:30:10.552Z,69.95
2018-07-19T03:32:39.570Z,70.20
2018-07-19T03:35:08.622Z,70.34
2018-07-19T03:37:37.645Z,70.83
2018-07-19T03:40:06.683Z,69.21
2018-07-19T03:42:35.716Z,69.85
2018-07-19T03:45:04.830Z,71.14
2018-07-19T03:47:33.828Z,69.47
2018-07-19T03:50:02.948Z,69.47
2018-07-19T03:52:31.935Z,68.75
2018-07-19T03:55:00.923Z,68.17
2018-07-19T03:57:29.937Z,68.83
2018-07-19T03:59:58.945Z,67.52
2018-07-19T04:02:27.960Z,68.87
2018-07-19T04:04:56.916Z,68.09
2018-07-19T04:07:26.057Z,68.34
2018-07-19T04:09:55.037Z,66.56
2018-07-19T04:12:24.063Z,67.30
2018-07-19T04:14:53.377Z,66.92
2018-07-19T04:17:22.464Z,66.94
2018-07-19T04:19:51.524Z,66.58
2018-07-19T04:22:20.520Z,67.37
2018-07-19T04:24:50.551Z,66.41
2018-07-19T04:27:19.675Z,66.47
2018-07-19T04:29:48.652Z,66.19
2018-07-19T04:32:17.677Z,65.29
2018-07-19T04:34:46.767Z,66.67
2018-07-19T04:37:15.864Z,66.83
2018-07-19T04:39:44.935Z,65.93
2018-07-19T04:42:14.046Z,65.40
2018-07-19T04:44:43.054Z,64.83
2018-07-19T04:47:12.093Z,64.58
2018-07-19T04:49:41.165Z,63.64
2018-07-19T04:52:10.321Z,64.88
2018-07-19T04:54:39.454Z,65.72
2018-07-19T04:57:08.454Z,66.10
2018-07-19T04:59:37.492Z,65.49
2018-07-19T05:02:06.761Z,65.74
2018-07-19T05:04:35.824Z,65.10
2018-07-19T05:07:04.957Z,65.11
2018-07-19T05:09:34.040Z,64.86
2018-07-19T05:12:03.094Z,64.20
2018-07-19T05:14:32.204Z,63.77
2018-07-19T05:17:01.244Z,64.80
2018-07-19T05:19:30.336Z,64.00
2018-07-19T05:21:59.355Z,63.71
2018-07-19T05:24:28.515Z,62.32
2018-07-19T05:26:57.555Z,62.15
2018-07-19T05:29:26.693Z,62.89
2018-07-19T05:31:55.765Z,61.90
2018-07-19T05:34:24.782Z,62.95
2018-07-19T05:36:53.824Z,63.12
2018-07-19T05:39:22.804Z,62.14
2018-07-19T05:41:51.844Z,61.43
2018-07-19T05:44:20.892Z,61.48
2018-07-19T05:46:49.960Z,62.24
2018-07-19T05:49:19.053Z,61.10
2018-07-19T05:51:48.096Z,60.85
2018-07-19T05:54:17.115Z,61.18
2018-07-19T05:56:46.184Z,61.97
2018-07-19T05:59:15.232Z,61.13
2018-07-19T06:01:44.269Z,60.02
2018-07-19T06:04:13.424Z,58.62
2018-07-19T06:06:42.437Z,59.48
2018-07-19T06:09:12.143Z,57.09
2018-07-19T06:11:41.528Z,56.94
2018-07-19T06:14:10.540Z,56.53
2018-07-19T06:20:11.674Z,55.61
2018-07-19T06:22:40.713Z,58.28
2018-07-19T06:25:09.721Z,58.78
2018-07-19T06:27:38.816Z,59.84
2018-07-19T06:30:08.264Z,58.36
2018-07-19T06:32:37.429Z,58.76
2018-07-19T06:35:06.531Z,59.94
2018-07-19T06:37:35.569Z,57.93
2018-07-19T06:40:05.124Z,59.59
2018-07-19T06:42:34.148Z,55.66
2018-07-19T06:45:03.313Z,50.17
2018-07-19T06:47:32.369Z,48.58
2018-07-19T06:50:01.436Z,46.83
2018-07-19T06:52:30.420Z,47.65
2018-07-19T06:54:59.465Z,47.33
2018-07-19T06:57:28.542Z,45.25
2018-07-19T06:59:57.550Z,43.10
2018-07-19T07:02:26.690Z,43.16
2018-07-19T07:04:55.656Z,44.67
2018-07-19T07:07:24.636Z,44.33
2018-07-19T07:09:53.613Z,42.63
2018-07-19T07:12:22.604Z,44.70
2018-07-19T07:14:51.701Z,45.59
2018-07-19T07:17:20.669Z,46.45
2018-07-19T07:19:49.779Z,44.49
2018-07-19T07:22:18.774Z,44.85
2018-07-19T07:24:47.745Z,43.16
2018-07-19T07:27:16.772Z,43.70
2018-07-19T07:29:45.751Z,44.25
2018-07-19T07:32:14.859Z,47.37
2018-07-19T07:34:43.940Z,47.18
2018-07-19T07:37:13.038Z,47.11
2018-07-19T07:39:42.111Z,47.18
2018-07-19T07:42:11.170Z,46.53
2018-07-19T07:44:40.325Z,47.15
2018-07-19T07:47:09.307Z,47.52
2018-07-19T07:49:38.358Z,47.43
2018-07-19T07:52:07.356Z,49.31
2018-07-19T07:54:36.334Z,49.68
2018-07-19T07:57:05.344Z,49.72
2018-07-19T07:59:34.357Z,51.15
2018-07-19T08:02:03.460Z,50.54
2018-07-19T08:04:32.496Z,51.18
2018-07-19T08:07:01.465Z,50.14
2018-07-19T08:09:30.444Z,51.07
2018-07-19T08:11:59.529Z,49.96
2018-07-19T08:14:28.503Z,48.60
2018-07-19T08:16:57.521Z,49.12
2018-07-19T08:19:26.619Z,46.61
2018-07-19T08:21:55.786Z,46.67
2018-07-19T08:24:24.803Z,46.75
2018-07-19T08:26:53.808Z,44.99
2018-07-19T08:29:22.830Z,45.01
2018-07-19T08:31:51.904Z,45.42
2018-07-19T08:34:20.876Z,47.41
2018-07-19T08:36:50.009Z,48.69
2018-07-19T08:39:18.989Z,47.98
2018-07-19T08:41:47.980Z,48.90
2018-07-19T08:44:17.033Z,49.93
2018-07-19T08:46:46.089Z,49.74
2018-07-19T08:49:15.501Z,48.93
2018-07-19T08:51:44.525Z,49.66
2018-07-19T08:54:13.522Z,47.86
2018-07-19T08:56:42.597Z,49.27
2018-07-19T08:59:11.579Z,49.50
2018-07-19T09:01:40.580Z,49.33
2018-07-19T09:04:09.656Z,49.89
2018-07-19T09:06:38.627Z,50.51
2018-07-19T09:09:09.149Z,52.38
2018-07-19T09:11:38.325Z,51.89
2018-07-19T09:14:07.403Z,50.37
2018-07-19T09:16:36.396Z,51.19
2018-07-19T09:19:05.424Z,50.81
2018-07-19T09:21:34.409Z,48.69
2018-07-19T09:24:03.453Z,48.03
2018-07-19T09:26:32.585Z,49.44
2018-07-19T09:29:01.512Z,49.40
2018-07-19T09:31:30.613Z,49.09
2018-07-19T09:33:59.685Z,49.21
2018-07-19T09:36:28.762Z,50.70
2018-07-19T09:38:57.796Z,50.96
2018-07-19T09:41:26.799Z,50.71
2018-07-19T09:43:55.980Z,50.32
2018-07-19T09:46:25.003Z,50.21
2018-07-19T09:48:54.044Z,51.25
2018-07-19T09:51:23.020Z,51.63
2018-07-19T09:53:52.112Z,51.45
2018-07-19T09:56:21.168Z,49.74
2018-07-19T09:58:50.120Z,50.26
2018-07-19T10:01:19.782Z,50.25
2018-07-19T10:03:50.191Z,48.96
2018-07-19T10:06:19.223Z,47.20
2018-07-19T10:08:48.237Z,46.58
2018-07-19T10:11:17.309Z,47.85
2018-07-19T10:13:46.832Z,45.88
2018-07-19T10:16:15.879Z,43.97
2018-07-19T10:18:45.074Z,43.26
2018-07-19T10:21:14.116Z,45.21
2018-07-19T10:23:43.221Z,46.30
2018-07-19T10:26:12.297Z,45.08
2018-07-19T10:28:41.478Z,45.68
2018-07-19T10:31:10.463Z,44.35
2018-07-19T10:33:39.573Z,46.14
2018-07-19T10:36:08.540Z,45.01
2018-07-19T10:38:37.565Z,45.14
2018-07-19T10:41:06.572Z,46.96
2018-07-19T10:43:35.561Z,47.30
2018-07-19T10:46:04.671Z,48.98
2018-07-19T10:48:33.704Z,49.28
2018-07-19T10:51:02.693Z,49.01
2018-07-19T10:53:31.713Z,46.03
2018-07-19T10:56:00.802Z,44.53
2018-07-19T10:58:29.833Z,44.34
2018-07-19T11:00:58.842Z,43.30
2018-07-19T11:03:27.837Z,41.54
2018-07-19T11:05:56.866Z,40.42
2018-07-19T11:08:25.949Z,39.76
2018-07-19T11:10:54.943Z,42.01
2018-07-19T11:13:24.004Z,41.79
2018-07-19T11:15:52.976Z,42.22
2018-07-19T11:18:22.041Z,41.23
2018-07-19T11:20:51.047Z,41.00
2018-07-19T11:23:20.130Z,40.02
2018-07-19T11:25:49.118Z,41.41
2018-07-19T11:28:18.091Z,41.08
2018-07-19T11:30:47.169Z,42.10
2018-07-19T11:33:16.192Z,41.57
2018-07-19T11:35:45.268Z,39.89
2018-07-19T11:38:14.342Z,41.43
2018-07-19T11:40:43.405Z,41.87
2018-07-19T11:43:12.380Z,41.23
2018-07-19T11:45:41.336Z,41.83
2018-07-19T11:48:10.304Z,42.14
2018-07-19T11:50:39.324Z,43.04
2018-07-19T11:53:08.365Z,43.36
2018-07-19T11:55:37.344Z,43.54
2018-07-19T11:58:06.469Z,43.30
2018-07-19T12:00:35.516Z,43.94
2018-07-19T12:03:04.573Z,44.67
2018-07-19T12:05:33.589Z,45.77
2018-07-19T12:08:02.543Z,45.31
2018-07-19T12:10:31.518Z,47.17
2018-07-19T12:13:00.481Z,47.66
2018-07-19T12:15:29.457Z,50.88
2018-07-19T12:17:58.405Z,50.83
2018-07-19T12:20:27.439Z,50.96
2018-07-19T12:22:56.408Z,50.19
2018-07-19T12:25:25.677Z,50.60
2018-07-19T12:27:54.796Z,50.59
2018-07-19T12:30:23.861Z,49.78
2018-07-19T12:32:52.832Z,48.89
2018-07-19T12:35:21.780Z,48.30
2018-07-19T12:37:50.869Z,48.32
2018-07-19T12:40:19.939Z,48.20
2018-07-19T12:42:48.974Z,45.85
2018-07-19T12:45:17.977Z,45.04
2018-07-19T12:47:47.201Z,43.86
2018-07-19T12:50:16.274Z,40.49
2018-07-19T12:52:45.240Z,38.34
2018-07-19T12:55:14.228Z,36.70
2018-07-19T12:57:43.336Z,36.73
2018-07-19T13:00:12.408Z,37.36
2018-07-19T13:02:41.409Z,37.87
2018-07-19T13:05:10.491Z,37.34
2018-07-19T13:07:39.521Z,37.35
2018-07-19T13:10:08.520Z,38.68
2018-07-19T13:12:37.513Z,40.74
2018-07-19T13:15:07.228Z,41.22
2018-07-19T13:17:36.320Z,43.23
2018-07-19T13:20:05.688Z,43.31
2018-07-19T13:22:34.661Z,43.28
2018-07-19T13:25:03.699Z,43.89
2018-07-19T13:27:32.755Z,45.96
2018-07-19T13:30:01.769Z,48.11
2018-07-19T13:32:30.776Z,48.29
2018-07-19T13:34:59.805Z,49.99
2018-07-19T13:37:28.825Z,49.31
2018-07-19T13:39:57.800Z,50.71
2018-07-19T13:42:26.749Z,50.59
2018-07-19T13:44:55.812Z,51.76
2018-07-19T13:47:24.821Z,51.19
2018-07-19T13:49:53.786Z,52.12
2018-07-19T13:52:33.632Z,52.51
2018-07-19T13:55:02.656Z,53.36
2018-07-19T13:57:31.716Z,51.44
2018-07-19T14:00:00.752Z,51.82
2018-07-19T14:02:29.868Z,51.21
2018-07-19T14:04:58.829Z,50.29
2018-07-19T14:07:27.975Z,50.48
2018-07-19T14:09:56.989Z,50.36
2018-07-19T14:12:26.078Z,49.83
2018-07-19T14:14:55.033Z,50.90
2018-07-19T14:17:23.969Z,47.91
2018-07-19T14:19:53.092Z,48.48
2018-07-19T14:22:22.053Z,46.98
2018-07-19T14:24:51.017Z,47.96
2018-07-19T14:27:19.969Z,47.79
2018-07-19T14:29:48.928Z,48.63
2018-07-19T14:32:17.959Z,48.95
2018-07-19T14:34:46.964Z,49.88
2018-07-19T14:37:15.992Z,49.06
2018-07-19T14:39:45.020Z,50.47
2018-07-19T14:42:13.993Z,51.51
2018-07-19T14:44:43.036Z,51.02
2018-07-19T14:47:12.000Z,50.53
2018-07-19T14:49:41.061Z,51.39
2018-07-19T14:52:10.077Z,50.40
2018-07-19T14:54:39.108Z,50.07
2018-07-19T14:57:08.206Z,49.15
2018-07-19T14:59:37.292Z,49.65
2018-07-19T15:02:06.317Z,48.98
2018-07-19T15:04:35.433Z,49.30
2018-07-19T15:07:04.461Z,50.05
2018-07-19T15:09:33.488Z,50.58
2018-07-19T15:12:02.485Z,51.33
2018-07-19T15:14:31.479Z,51.30
2018-07-19T15:17:00.509Z,53.00
2018-07-19T15:19:29.529Z,58.49
2018-07-19T15:21:58.670Z,61.35
2018-07-19T15:24:27.693Z,67.32
2018-07-19T15:26:56.674Z,69.46
2018-07-19T15:29:25.714Z,69.41
2018-07-19T15:31:54.665Z,71.55
2018-07-19T15:34:23.710Z,73.78
2018-07-19T15:36:52.773Z,74.65
2018-07-19T15:39:21.797Z,73.89
2018-07-19T15:41:50.777Z,76.70
2018-07-19T15:44:19.896Z,75.60
2018-07-19T15:46:48.859Z,76.47
2018-07-19T15:49:17.792Z,75.13
2018-07-19T15:51:46.957Z,73.69
2018-07-19T15:54:15.908Z,74.07
2018-07-19T15:56:44.876Z,74.37
2018-07-19T15:59:13.829Z,73.00
2018-07-19T16:01:42.796Z,72.46
2018-07-19T16:04:12.122Z,70.87
2018-07-19T16:06:41.195Z,71.08
2018-07-19T16:09:11.913Z,71.05
2018-07-19T16:11:41.065Z,71.56
2018-07-19T16:14:10.032Z,70.88
2018-07-19T16:16:38.975Z,67.09
2018-07-19T16:19:08.073Z,68.96
2018-07-19T16:21:37.105Z,66.83
2018-07-19T16:24:06.124Z,67.53
2018-07-19T16:26:35.193Z,67.50
2018-07-19T16:29:04.225Z,67.35
2018-07-19T16:31:33.168Z,67.34
2018-07-19T16:34:02.137Z,66.38
2018-07-19T16:36:31.111Z,65.45
2018-07-19T16:39:00.191Z,65.26
2018-07-19T16:41:29.301Z,66.15
2018-07-19T16:43:58.257Z,65.94
2018-07-19T16:46:27.235Z,66.04
2018-07-19T16:48:56.219Z,66.65
2018-07-19T16:51:25.354Z,67.40
2018-07-19T16:53:54.305Z,66.72
2018-07-19T16:56:23.324Z,66.48
2018-07-19T16:58:52.295Z,66.48
2018-07-19T17:01:21.332Z,67.43
2018-07-19T17:03:50.364Z,67.70
2018-07-19T17:06:19.432Z,67.25
2018-07-19T17:08:49.487Z,67.17
2018-07-19T17:11:18.467Z,67.19
2018-07-19T17:13:47.480Z,66.71
2018-07-19T17:16:16.653Z,66.89
2018-07-19T17:18:45.722Z,66.40
2018-07-19T17:21:14.798Z,66.17
2018-07-19T17:23:43.746Z,66.10
2018-07-19T17:26:12.775Z,65.38
2018-07-19T17:28:41.845Z,64.74
2018-07-19T17:31:10.957Z,64.98
2018-07-19T17:33:39.960Z,64.87
2018-07-19T17:36:09.052Z,64.99
2018-07-19T17:38:38.075Z,64.00
2018-07-19T17:41:07.349Z,64.43
2018-07-19T17:43:36.397Z,63.85
2018-07-19T17:46:05.464Z,63.48
2018-07-19T17:48:34.428Z,65.22
2018-07-19T17:51:06.365Z,64.44
2018-07-19T17:53:36.258Z,64.56
2018-07-19T17:56:05.275Z,64.71
2018-07-19T17:58:36.758Z,65.80
2018-07-19T18:01:05.912Z,66.70
2018-07-19T18:03:35.701Z,67.83
2018-07-19T18:06:04.720Z,70.27
2018-07-19T18:08:34.020Z,71.73
2018-07-19T18:11:03.076Z,72.20
2018-07-19T18:13:32.155Z,74.38
2018-07-19T18:16:01.210Z,72.91
2018-07-19T18:18:30.385Z,73.79
2018-07-19T18:20:59.465Z,73.26
2018-07-19T18:23:28.512Z,72.77
2018-07-19T18:25:57.551Z,73.34
2018-07-19T18:28:26.528Z,73.66
2018-07-19T18:30:55.577Z,75.75
2018-07-19T18:33:24.630Z,75.03
2018-07-19T18:35:53.661Z,76.35
2018-07-19T18:38:24.196Z,76.07
2018-07-19T18:40:53.190Z,78.60
2018-07-19T18:43:22.869Z,79.47
2018-07-19T18:45:51.904Z,81.29
2018-07-19T18:48:20.900Z,81.76
2018-07-19T18:50:50.141Z,84.39
2018-07-19T18:53:19.152Z,85.55
2018-07-19T18:55:48.262Z,86.77
2018-07-19T18:58:17.308Z,88.00
2018-07-19T19:00:46.323Z,86.15
2018-07-19T19:03:15.288Z,87.05
2018-07-19T19:05:44.360Z,83.62
2018-07-19T19:08:13.345Z,84.77
2018-07-19T19:10:42.300Z,85.10
2018-07-19T19:13:17.822Z,84.31
2018-07-19T19:15:46.984Z,81.54
2018-07-19T19:18:15.979Z,81.41
2018-07-19T19:20:44.956Z,80.59
2018-07-19T19:23:13.948Z,80.56
2018-07-19T19:25:43.010Z,79.42
2018-07-19T19:28:12.121Z,79.15
2018-07-19T19:30:41.102Z,78.94
2018-07-19T19:33:10.139Z,78.99
2018-07-19T19:35:39.176Z,77.92
2018-07-19T19:38:08.203Z,78.37
2018-07-19T19:40:37.253Z,76.34
2018-07-19T19:43:06.457Z,77.46
2018-07-19T19:45:35.617Z,76.76
2018-07-19T19:48:04.645Z,77.11
2018-07-19T19:50:33.689Z,78.24
2018-07-19T19:53:02.768Z,80.90
2018-07-19T19:55:31.753Z,84.85
2018-07-19T19:58:00.732Z,86.90
2018-07-19T20:00:29.774Z,89.27
2018-07-19T20:02:58.914Z,94.76
2018-07-19T20:05:27.974Z,97.80
2018-07-19T20:07:57.131Z,97.84
2018-07-19T20:10:26.161Z,98.80
2018-07-19T20:12:55.204Z,97.34
2018-07-19T20:15:24.205Z,100.00
2018-07-19T20:17:53.230Z,100.00
2018-07-19T20:20:22.225Z,100.00
2018-07-19T20:22:51.303Z,100.00
2018-07-19T20:25:20.376Z,100.00
2018-07-19T20:27:49.392Z,100.00
2018-07-19T20:30:18.429Z,100.00
2018-07-19T20:32:47.412Z,99.75
2018-07-19T20:35:16.441Z,99.37
2018-07-19T20:37:45.476Z,99.89
2018-07-19T20:40:14.469Z,96.81
2018-07-19T20:42:43.462Z,97.83
2018-07-19T20:45:12.424Z,98.36
2018-07-19T20:47:41.452Z,100.00
2018-07-19T20:50:10.456Z,100.00
2018-07-19T20:52:39.544Z,100.00
2018-07-19T20:55:09.140Z,100.00
2018-07-19T20:57:38.696Z,100.00
2018-07-19T21:00:08.077Z,100.00
2018-07-19T21:02:37.085Z,100.00
2018-07-19T21:05:06.201Z,100.00
2018-07-19T21:07:35.240Z,100.00
2018-07-19T21:10:04.343Z,100.00
2018-07-19T21:12:33.263Z,100.00
2018-07-19T21:15:02.272Z,100.00
2018-07-19T21:17:31.316Z,100.00
2018-07-19T21:20:00.309Z,100.00
2018-07-19T21:22:29.336Z,100.00
2018-07-19T21:24:58.352Z,100.00
2018-07-19T21:27:27.312Z,100.00
2018-07-19T21:29:56.268Z,100.00
2018-07-19T21:32:25.227Z,100.00
2018-07-19T21:34:54.281Z,100.00
2018-07-19T21:37:23.349Z,100.00
2018-07-19T21:39:52.492Z,100.00
2018-07-19T21:42:21.443Z,100.00
2018-07-19T21:44:50.464Z,100.00
2018-07-19T21:47:19.472Z,100.00
2018-07-19T21:49:48.439Z,100.00
2018-07-19T21:52:17.552Z,100.00
2018-07-19T21:54:46.581Z,100.00
2018-07-19T21:57:15.539Z,100.00
2018-07-19T21:59:44.608Z,100.00
2018-07-19T22:02:15.041Z,100.00
2018-07-19T22:04:44.236Z,100.00
2018-07-19T22:07:13.296Z,100.00
2018-07-19T22:09:42.479Z,100.00
2018-07-19T22:12:11.437Z,100.00
2018-07-19T22:14:40.400Z,100.00
2018-07-19T22:17:09.358Z,100.00
2018-07-19T22:19:38.458Z,100.00
2018-07-19T22:22:07.470Z,100.00
2018-07-19T22:24:36.447Z,100.00
2018-07-19T22:27:05.416Z,100.00
2018-07-19T22:29:34.382Z,100.00
2018-07-19T22:32:03.324Z,100.00
2018-07-19T22:34:32.387Z,100.00
2018-07-19T22:37:01.337Z,100.00
2018-07-19T22:39:30.397Z,100.00
2018-07-19T22:41:59.462Z,100.00
2018-07-19T22:44:28.421Z,100.00
2018-07-19T22:46:57.461Z,100.00
2018-07-19T22:49:26.416Z,100.00
2018-07-19T22:51:55.475Z,100.00
2018-07-19T22:54:24.573Z,100.00
2018-07-19T22:56:53.710Z,100.00
2018-07-19T22:59:22.674Z,100.00
2018-07-19T23:01:51.697Z,100.00
2018-07-19T23:04:20.748Z,100.00
2018-07-19T23:06:49.781Z,100.00
2018-07-19T23:09:18.921Z,100.00
2018-07-19T23:11:47.959Z,100.00
2018-07-19T23:14:17.000Z,100.00
2018-07-19T23:16:46.074Z,100.00
2018-07-19T23:19:15.107Z,100.00
2018-07-19T23:21:44.174Z,100.00
2018-07-19T23:24:13.139Z,100.00
2018-07-19T23:26:42.221Z,100.00
2018-07-19T23:29:11.390Z,100.00
2018-07-19T23:31:40.474Z,100.00
2018-07-19T23:34:09.532Z,100.00
2018-07-19T23:36:56.448Z,100.00
2018-07-19T23:39:30.096Z,100.00
2018-07-19T23:42:06.473Z,98.38
2018-07-19T23:44:43.741Z,99.09
2018-07-19T23:47:16.812Z,99.14
2018-07-19T23:49:45.849Z,98.18
2018-07-19T23:52:14.876Z,98.89
2018-07-19T23:54:43.823Z,99.65
2018-07-19T23:57:12.786Z,99.97
2018-07-19T23:59:41.819Z,100.00
